Time;durP1;ratioP1;P1;durP2;ratioP2;P2;SDS_P1;SDS_P2;PMS_P1;PMS_P2;Temp;Humidity;BMP_temperature;BMP_pressure;BME280_temperature;BME280_humidity;BME280_pressure;Samples;Min_cycle;Max_cycle;Signal;HPM_P1;HPM_P2
2022/03/30 00:00:11;;;;;;;26.88;18.52;;;;;;;-148.33;100.00;56587.81;5047838;28;20136;-59
2022/03/30 00:02:36;;;;;;;30.10;18.60;;;;;;;-148.33;100.00;56587.81;5047985;28;20052;-56
2022/03/30 00:05:02;;;;;;;28.08;19.42;;;;;;;-148.33;100.00;56587.81;5048088;28;20071;-58
2022/03/30 00:07:31;;;;;;;28.65;18.65;;;;;;;-148.33;100.00;56587.81;5048297;28;20056;-56
2022/03/30 00:09:59;;;;;;;28.73;19.17;;;;;;;-148.33;100.00;56587.81;5048574;28;20024;-58
2022/03/30 00:12:26;;;;;;;28.77;18.45;;;;;;;-148.33;100.00;56587.81;5048653;28;20052;-57
2022/03/30 00:14:51;;;;;;;21.98;17.05;;;;;;;-148.33;100.00;56587.81;5047642;28;20025;-58
2022/03/30 00:17:17;;;;;;;26.80;18.80;;;;;;;-148.33;100.00;56587.81;5047924;28;20044;-58
2022/03/30 00:19:43;;;;;;;27.17;18.75;;;;;;;-148.33;100.00;56587.81;5047975;28;20017;-58
2022/03/30 00:22:09;;;;;;;33.17;18.90;;;;;;;-148.33;100.00;56587.81;5048273;28;20496;-58
2022/03/30 00:24:35;;;;;;;30.10;19.73;;;;;;;-148.33;100.00;56587.81;5048322;28;20021;-56
2022/03/30 00:27:02;;;;;;;28.83;18.90;;;;;;;-148.33;100.00;56587.81;5047801;28;20035;-56
2022/03/30 00:29:27;;;;;;;26.40;19.33;;;;;;;-148.33;100.00;56587.81;5047441;28;20013;-58
2022/03/30 00:31:53;;;;;;;27.38;19.33;;;;;;;-148.33;100.00;56587.81;5047296;28;20043;-58
2022/03/30 00:34:18;;;;;;;27.90;19.17;;;;;;;-148.33;100.00;56587.81;5048109;28;20604;-57
2022/03/30 00:36:43;;;;;;;27.52;18.88;;;;;;;-148.33;100.00;56587.81;5047797;28;20103;-58
2022/03/30 00:39:09;;;;;;;24.83;18.40;;;;;;;-148.33;100.00;56587.81;5047248;28;20060;-58
2022/03/30 00:41:34;;;;;;;28.73;19.67;;;;;;;-148.33;100.00;56587.81;5047938;28;20108;-56
2022/03/30 00:44:10;;;;;;;29.35;19.42;;;;;;;-148.33;100.00;56587.81;5047888;28;20299;-55
2022/03/30 00:46:36;;;;;;;28.92;18.42;;;;;;;-148.33;100.00;56587.81;5048026;28;20029;-57
2022/03/30 00:49:04;;;;;;;31.98;19.33;;;;;;;-148.33;100.00;56587.81;5047861;28;20036;-55
2022/03/30 00:51:29;;;;;;;32.67;19.67;;;;;;;-148.33;100.00;56587.81;5047535;28;20469;-56
2022/03/30 00:53:55;;;;;;;28.33;18.92;;;;;;;-148.33;100.00;56587.81;5047545;28;20028;-57
2022/03/30 00:56:20;;;;;;;29.13;19.65;;;;;;;-148.33;100.00;56587.81;5048042;28;20025;-56
2022/03/30 00:58:45;;;;;;;27.60;19.45;;;;;;;-148.33;100.00;56587.81;5047433;28;20033;-55
2022/03/30 01:01:11;;;;;;;26.23;18.85;;;;;;;-148.33;100.00;56587.81;5047568;28;20064;-55
2022/03/30 01:03:37;;;;;;;29.52;19.50;;;;;;;-148.33;100.00;56587.81;5047745;28;20021;-57
2022/03/30 01:06:02;;;;;;;33.40;20.00;;;;;;;-148.33;100.00;56587.81;5047252;28;20385;-56
2022/03/30 01:08:28;;;;;;;29.05;20.17;;;;;;;-148.33;100.00;56587.81;5047869;28;20471;-57
2022/03/30 01:10:53;;;;;;;28.70;19.13;;;;;;;-148.33;100.00;56587.81;5048227;28;20013;-57
2022/03/30 01:13:19;;;;;;;28.98;19.83;;;;;;;-148.33;100.00;56587.81;5047203;28;20108;-57
2022/03/30 01:15:45;;;;;;;26.90;19.73;;;;;;;-148.33;100.00;56587.81;5047119;28;20025;-59
2022/03/30 01:18:11;;;;;;;27.63;19.05;;;;;;;-148.33;100.00;56587.81;5047486;28;20056;-56
2022/03/30 01:20:37;;;;;;;30.65;19.77;;;;;;;-148.33;100.00;56587.81;5047687;28;20552;-57
2022/03/30 01:23:02;;;;;;;29.95;19.55;;;;;;;-148.33;100.00;56587.81;5048033;28;20474;-57
2022/03/30 01:25:28;;;;;;;32.72;19.25;;;;;;;-148.33;100.00;56587.81;5048020;28;20056;-57
2022/03/30 01:27:53;;;;;;;25.35;19.85;;;;;;;-148.33;100.00;56587.81;5046982;28;20021;-53
2022/03/30 01:33:07;;;;;;;29.20;18.40;;;;;;;-148.33;100.00;56587.81;5047576;28;20044;-57
2022/03/30 01:35:33;;;;;;;32.08;19.95;;;;;;;-148.33;100.00;56587.81;5047419;28;20051;-57
2022/03/30 01:37:58;;;;;;;31.52;20.05;;;;;;;-148.33;100.00;56587.81;5047383;28;20033;-55
2022/03/30 01:40:24;;;;;;;29.85;18.92;;;;;;;-148.33;100.00;56587.81;5047451;28;20033;-58
2022/03/30 01:42:49;;;;;;;28.20;18.85;;;;;;;-148.33;100.00;56587.81;5048190;28;20025;-58
2022/03/30 01:45:16;;;;;;;25.52;20.50;;;;;;;-148.33;100.00;56587.81;5050494;28;20462;-53
2022/03/30 01:47:51;;;;;;;26.88;19.63;;;;;;;-148.33;100.00;56587.81;5049933;28;20087;-56
2022/03/30 01:50:17;;;;;;;27.85;18.73;;;;;;;-148.33;100.00;56587.81;5050554;28;20024;-57
2022/03/30 01:52:43;;;;;;;31.88;18.80;;;;;;;-148.33;100.00;56587.81;5050282;28;20025;-57
2022/03/30 01:55:09;;;;;;;32.47;19.13;;;;;;;-148.33;100.00;56587.81;5050461;28;20375;-58
2022/03/30 01:57:34;;;;;;;31.08;18.63;;;;;;;-148.33;100.00;56587.81;5050262;28;20024;-58
2022/03/30 02:00:03;;;;;;;33.10;20.98;;;;;;;-148.33;100.00;56587.81;5050484;28;20537;-58
2022/03/30 02:02:29;;;;;;;31.50;19.08;;;;;;;-148.33;100.00;56587.81;5050726;28;20102;-57
2022/03/30 02:04:54;;;;;;;29.88;19.90;;;;;;;-148.33;100.00;56587.81;5050041;28;20028;-57
2022/03/30 02:07:20;;;;;;;28.75;19.02;;;;;;;-148.33;100.00;56587.81;5050387;28;20196;-57
2022/03/30 02:09:45;;;;;;;29.05;19.77;;;;;;;-148.33;100.00;56587.81;5050442;28;20536;-57
2022/03/30 02:12:11;;;;;;;27.97;18.67;;;;;;;-148.33;100.00;56587.81;5050515;28;20037;-56
2022/03/30 02:14:36;;;;;;;28.20;19.30;;;;;;;-148.33;100.00;56587.81;5050304;28;20029;-57
2022/03/30 02:17:02;;;;;;;27.95;19.52;;;;;;;-148.33;100.00;56587.81;5050359;28;20327;-56
2022/03/30 02:19:27;;;;;;;30.17;19.63;;;;;;;-148.33;100.00;56587.81;5050217;28;20550;-58
2022/03/30 02:21:52;;;;;;;32.22;20.13;;;;;;;-148.33;100.00;56587.81;5050535;28;20029;-54
2022/03/30 02:24:18;;;;;;;28.27;19.80;;;;;;;-148.33;100.00;56587.81;5050313;28;20029;-56
2022/03/30 02:26:43;;;;;;;30.75;19.55;;;;;;;-148.33;100.00;56587.81;5050195;28;20082;-56
2022/03/30 02:29:08;;;;;;;30.85;20.35;;;;;;;-148.33;100.00;56587.81;5050037;28;20492;-57
2022/03/30 02:31:34;;;;;;;32.60;20.17;;;;;;;-148.33;100.00;56587.81;5050077;28;20028;-57
2022/03/30 02:34:00;;;;;;;31.13;20.17;;;;;;;-148.33;100.00;56587.81;5050352;28;20033;-58
2022/03/30 02:36:25;;;;;;;31.33;19.63;;;;;;;-148.33;100.00;56587.81;5049900;28;20040;-58
2022/03/30 02:38:50;;;;;;;34.50;20.50;;;;;;;-148.33;100.00;56587.81;5049569;28;20025;-56
2022/03/30 02:41:16;;;;;;;29.75;19.35;;;;;;;-148.33;100.00;56587.81;5049838;28;20078;-56
2022/03/30 02:43:41;;;;;;;28.90;19.80;;;;;;;-148.33;100.00;56587.81;5055427;28;20040;-56
2022/03/30 02:46:07;;;;;;;35.30;19.58;;;;;;;-148.33;100.00;56587.81;5069834;28;20031;-55
2022/03/30 02:48:37;;;;;;;28.42;19.90;;;;;;;-148.33;100.00;56587.81;5069510;28;20035;-55
2022/03/30 02:51:05;;;;;;;34.07;21.27;;;;;;;-148.33;100.00;56587.81;5069012;28;20028;-58
2022/03/30 02:53:31;;;;;;;29.00;19.97;;;;;;;-148.33;100.00;56587.81;5069137;28;20089;-54
2022/03/30 02:55:57;;;;;;;35.90;20.13;;;;;;;-148.33;100.00;56587.81;5069033;28;20043;-58
2022/03/30 02:58:23;;;;;;;32.80;20.63;;;;;;;-148.33;100.00;56587.81;5069753;28;20125;-57
2022/03/30 03:00:49;;;;;;;29.37;20.00;;;;;;;-148.33;100.00;56587.81;5069309;28;20080;-59
2022/03/30 03:03:14;;;;;;;30.65;19.08;;;;;;;-148.33;100.00;56587.81;5069655;28;20024;-57
2022/03/30 03:05:42;;;;;;;33.27;20.23;;;;;;;-148.33;100.00;56587.81;5069083;28;20028;-57
2022/03/30 03:08:10;;;;;;;31.08;20.15;;;;;;;-148.33;100.00;56587.81;5069557;28;20030;-57
2022/03/30 03:10:37;;;;;;;30.33;19.47;;;;;;;-148.33;100.00;56587.81;5069405;28;20036;-58
2022/03/30 03:13:03;;;;;;;33.83;20.07;;;;;;;-148.33;100.00;56587.81;5069167;28;20111;-58
2022/03/30 03:15:30;;;;;;;31.83;21.27;;;;;;;-148.33;100.00;56587.81;5069443;28;20234;-59
2022/03/30 03:17:57;;;;;;;31.23;19.83;;;;;;;-148.33;100.00;56587.81;5069580;28;20032;-57
2022/03/30 03:20:23;;;;;;;30.77;20.27;;;;;;;-148.33;100.00;56587.81;5068757;28;20025;-58
2022/03/30 03:22:49;;;;;;;26.87;19.10;;;;;;;-148.33;100.00;56587.81;5068648;28;20040;-57
2022/03/30 03:25:14;;;;;;;30.53;20.03;;;;;;;-148.33;100.00;56587.81;5068811;28;20048;-58
2022/03/30 03:27:39;;;;;;;31.63;19.93;;;;;;;-148.33;100.00;56587.81;5068821;28;20370;-58
2022/03/30 03:30:08;;;;;;;26.63;19.90;;;;;;;-148.33;100.00;56587.81;5068835;28;20465;-55
2022/03/30 03:32:33;;;;;;;32.53;20.90;;;;;;;-148.33;100.00;56587.81;5069211;28;20033;-59
2022/03/30 03:34:59;;;;;;;30.43;20.30;;;;;;;-148.33;100.00;56587.81;5068752;28;20032;-57
2022/03/30 03:37:24;;;;;;;33.30;21.03;;;;;;;-148.33;100.00;56587.81;5068480;28;20056;-56
2022/03/30 03:39:49;;;;;;;31.97;20.73;;;;;;;-148.33;100.00;56587.81;5068850;28;20036;-57
2022/03/30 03:42:16;;;;;;;30.90;20.13;;;;;;;-148.33;100.00;56587.81;5068392;28;20028;-56
2022/03/30 03:44:41;;;;;;;29.97;20.00;;;;;;;-148.33;100.00;56587.81;5068288;28;20399;-57
2022/03/30 03:47:09;;;;;;;32.67;20.20;;;;;;;-148.33;100.00;56587.81;5068441;28;20028;-58
2022/03/30 03:49:35;;;;;;;30.80;21.07;;;;;;;-148.33;100.00;56587.81;5068858;28;20024;-59
2022/03/30 03:52:00;;;;;;;32.57;20.63;;;;;;;-148.33;100.00;56587.81;5068489;28;20440;-58
2022/03/30 03:54:25;;;;;;;27.17;19.47;;;;;;;-148.33;100.00;56587.81;5068325;28;20503;-58
2022/03/30 03:56:51;;;;;;;31.77;19.63;;;;;;;-148.33;100.00;56587.81;5068870;28;20090;-57
2022/03/30 03:59:16;;;;;;;29.80;19.53;;;;;;;-148.33;100.00;56587.81;5068337;28;20155;-58
2022/03/30 04:01:41;;;;;;;29.73;19.70;;;;;;;-148.33;100.00;56587.81;5068300;28;20052;-57
2022/03/30 04:04:07;;;;;;;34.67;20.87;;;;;;;-148.33;100.00;56587.81;5068362;28;20464;-56
2022/03/30 04:06:32;;;;;;;32.80;20.33;;;;;;;-148.33;100.00;56587.81;5067997;28;20067;-57
2022/03/30 04:08:58;;;;;;;31.17;20.43;;;;;;;-148.33;100.00;56587.81;5068317;28;20036;-57
2022/03/30 04:11:24;;;;;;;31.00;20.07;;;;;;;-148.33;100.00;56587.81;5067997;28;20024;-57
2022/03/30 04:13:49;;;;;;;26.73;20.00;;;;;;;-148.33;100.00;56587.81;5054850;28;20545;-56
2022/03/30 04:16:16;;;;;;;34.73;19.97;;;;;;;-148.33;100.00;56587.81;5048765;28;20035;-59
2022/03/30 04:18:44;;;;;;;30.80;19.30;;;;;;;-148.33;100.00;56587.81;5048015;28;20060;-57
2022/03/30 04:21:10;;;;;;;28.63;18.63;;;;;;;-148.33;100.00;56587.81;5047598;28;20033;-55
2022/03/30 04:23:36;;;;;;;34.13;20.20;;;;;;;-148.33;100.00;56587.81;5048645;28;20098;-57
2022/03/30 04:26:02;;;;;;;31.47;20.23;;;;;;;-148.33;100.00;56587.81;5048477;28;20387;-57
2022/03/30 04:28:27;;;;;;;29.97;19.77;;;;;;;-148.33;100.00;56587.81;5048533;28;20055;-57
2022/03/30 04:30:53;;;;;;;32.37;19.77;;;;;;;-148.33;100.00;56587.81;5047576;28;20025;-58
2022/03/30 04:33:18;;;;;;;34.27;21.33;;;;;;;-148.33;100.00;56587.81;5048113;28;20401;-58
2022/03/30 04:35:43;;;;;;;30.47;20.07;;;;;;;-148.33;100.00;56587.81;5047301;28;20029;-57
2022/03/30 04:38:09;;;;;;;33.63;20.53;;;;;;;-148.33;100.00;56587.81;5048036;28;20017;-58
2022/03/30 04:40:34;;;;;;;32.13;20.67;;;;;;;-148.33;100.00;56587.81;5048000;28;20040;-59
2022/03/30 04:43:00;;;;;;;35.00;20.80;;;;;;;-148.33;100.00;56587.81;5047346;28;20365;-58
2022/03/30 04:45:26;;;;;;;28.30;20.37;;;;;;;-148.33;100.00;56587.81;5048314;28;20035;-58
2022/03/30 04:47:55;;;;;;;28.83;20.57;;;;;;;-148.33;100.00;56587.81;5047509;28;20029;-58
2022/03/30 04:50:21;;;;;;;32.87;20.13;;;;;;;-148.33;100.00;56587.81;5048041;28;20017;-56
2022/03/30 04:52:47;;;;;;;35.63;20.50;;;;;;;-148.33;100.00;56587.81;5047527;28;20086;-59
2022/03/30 04:55:12;;;;;;;30.53;20.90;;;;;;;-148.33;100.00;56587.81;5047272;28;20557;-56
2022/03/30 04:57:40;;;;;;;34.80;21.10;;;;;;;-148.33;100.00;56587.81;5047433;28;20075;-57
2022/03/30 05:00:10;;;;;;;32.97;19.83;;;;;;;-148.33;100.00;56587.81;5047858;28;20391;-59
2022/03/30 05:02:39;;;;;;;34.43;21.43;;;;;;;-148.33;100.00;56587.81;5047949;28;20053;-57
2022/03/30 05:05:06;;;;;;;31.47;20.30;;;;;;;-148.33;100.00;56587.81;5047382;28;20025;-59
2022/03/30 05:07:31;;;;;;;29.60;19.50;;;;;;;-148.33;100.00;56587.81;5047547;28;20020;-59
2022/03/30 05:10:00;;;;;;;35.47;21.40;;;;;;;-148.33;100.00;56587.81;5047168;28;20443;-57
2022/03/30 05:12:26;;;;;;;32.37;19.83;;;;;;;-148.33;100.00;56587.81;5045678;28;20116;-56
2022/03/30 05:14:52;;;;;;;31.47;20.03;;;;;;;-148.33;100.00;56587.81;5045958;28;20115;-57
2022/03/30 05:17:17;;;;;;;36.40;20.47;;;;;;;-148.33;100.00;56587.81;5046129;28;20435;-57
2022/03/30 05:19:45;;;;;;;34.73;21.70;;;;;;;-148.33;100.00;56587.81;5049515;28;20032;-55
2022/03/30 05:22:11;;;;;;;43.23;23.30;;;;;;;-148.33;100.00;56587.81;5051415;28;20493;-57
2022/03/30 05:24:37;;;;;;;36.73;26.03;;;;;;;-148.33;100.00;56587.81;5051050;28;20130;-57
2022/03/30 05:27:02;;;;;;;42.37;26.33;;;;;;;-148.33;100.00;56587.81;5051423;28;20062;-56
2022/03/30 05:29:28;;;;;;;37.57;26.27;;;;;;;-148.33;100.00;56587.81;5051579;28;20040;-57
2022/03/30 05:31:53;;;;;;;39.97;26.77;;;;;;;-148.33;100.00;56587.81;5050644;28;20024;-60
2022/03/30 05:34:18;;;;;;;39.97;27.63;;;;;;;-148.33;100.00;56587.81;5050809;28;20676;-56
2022/03/30 05:36:43;;;;;;;40.50;29.53;;;;;;;-148.33;100.00;56587.81;5051237;28;20032;-55
2022/03/30 05:39:10;;;;;;;42.13;27.83;;;;;;;-148.33;100.00;56587.81;5050915;28;20060;-56
2022/03/30 05:41:35;;;;;;;37.00;27.57;;;;;;;-148.33;100.00;56587.81;5050588;28;20132;-56
2022/03/30 05:44:01;;;;;;;38.53;28.43;;;;;;;-148.33;100.00;56587.81;5049661;28;20120;-54
2022/03/30 05:46:27;;;;;;;40.40;28.30;;;;;;;-148.33;100.00;56587.81;5049343;28;20116;-55
2022/03/30 05:48:52;;;;;;;39.30;27.70;;;;;;;-148.33;100.00;56587.81;5049818;28;20060;-58
2022/03/30 05:51:18;;;;;;;40.67;27.17;;;;;;;-148.33;100.00;56587.81;5050105;28;20401;-56
2022/03/30 05:53:44;;;;;;;40.50;27.20;;;;;;;-148.33;100.00;56587.81;5050033;28;20393;-57
2022/03/30 05:56:09;;;;;;;36.67;26.07;;;;;;;-148.33;100.00;56587.81;5050198;28;20055;-57
2022/03/30 05:58:34;;;;;;;41.97;24.73;;;;;;;-148.33;100.00;56587.81;5050698;28;20049;-56
2022/03/30 06:01:00;;;;;;;33.47;24.43;;;;;;;-148.33;100.00;56587.81;5048542;28;20401;-56
2022/03/30 06:03:25;;;;;;;39.30;25.27;;;;;;;-148.33;100.00;56587.81;5048972;28;20032;-58
2022/03/30 06:05:51;;;;;;;37.70;23.53;;;;;;;-148.33;100.00;56587.81;5049527;28;20029;-56
2022/03/30 06:08:16;;;;;;;33.27;23.50;;;;;;;-148.33;100.00;56587.81;5049267;28;20386;-57
2022/03/30 06:10:42;;;;;;;40.97;24.60;;;;;;;-148.33;100.00;56587.81;5049777;28;20028;-56
2022/03/30 06:13:08;;;;;;;39.90;24.80;;;;;;;-148.33;100.00;56587.81;5049083;28;20028;-54
2022/03/30 06:15:33;;;;;;;36.23;23.87;;;;;;;-148.33;100.00;56587.81;5049754;28;20021;-58
2022/03/30 06:17:59;;;;;;;35.23;22.67;;;;;;;-148.33;100.00;56587.81;5050447;28;20025;-56
2022/03/30 06:20:26;;;;;;;31.07;21.47;;;;;;;-148.33;100.00;56587.81;5050392;28;20067;-56
2022/03/30 06:22:52;;;;;;;38.03;22.63;;;;;;;-148.33;100.00;56587.81;5049927;28;20025;-57
2022/03/30 06:25:22;;;;;;;31.50;21.23;;;;;;;-148.33;100.00;56587.81;5049989;28;20059;-58
2022/03/30 06:27:48;;;;;;;33.80;22.53;;;;;;;-148.33;100.00;56587.81;5050074;28;20544;-54
2022/03/30 06:30:13;;;;;;;38.87;21.90;;;;;;;-148.33;100.00;56587.81;5048975;28;20028;-57
2022/03/30 06:32:39;;;;;;;29.77;21.57;;;;;;;-148.33;100.00;56587.81;5050301;28;20024;-57
2022/03/30 06:35:05;;;;;;;31.37;20.67;;;;;;;-148.33;100.00;56587.81;5049878;28;20094;-58
2022/03/30 06:37:30;;;;;;;31.53;21.33;;;;;;;-148.33;100.00;56587.81;5049725;28;20029;-58
2022/03/30 06:39:56;;;;;;;36.43;21.40;;;;;;;-148.33;100.00;56587.81;5049634;28;20338;-58
2022/03/30 06:42:21;;;;;;;35.87;22.47;;;;;;;-148.33;100.00;56587.81;5049909;28;20028;-57
2022/03/30 06:44:46;;;;;;;35.50;20.40;;;;;;;-148.33;100.00;56587.81;5049416;28;20025;-55
2022/03/30 06:47:12;;;;;;;33.83;21.37;;;;;;;-148.33;100.00;56587.81;5049648;28;20083;-58
2022/03/30 06:49:38;;;;;;;29.93;21.60;;;;;;;-148.33;100.00;56587.81;5049706;28;20013;-56
2022/03/30 06:52:08;;;;;;;32.63;20.43;;;;;;;-148.33;100.00;56587.81;5049577;28;20056;-57
2022/03/30 06:54:34;;;;;;;32.15;20.52;;;;;;;-148.33;100.00;56587.81;5050227;28;20031;-56
2022/03/30 06:57:01;;;;;;;30.75;20.73;;;;;;;-148.33;100.00;56587.81;5049598;28;20029;-59
2022/03/30 06:59:27;;;;;;;33.20;20.42;;;;;;;-148.33;100.00;56587.81;5049515;28;20032;-57
2022/03/30 07:01:54;;;;;;;26.63;19.00;;;;;;;-148.33;100.00;56587.81;5049173;28;20580;-58
2022/03/30 07:04:20;;;;;;;23.67;17.52;;;;;;;-148.33;100.00;56587.81;5049403;28;20441;-55
2022/03/30 07:12:13;;;;;;;28.50;18.38;;;;;;;-148.33;100.00;56587.81;5049744;28;20116;-57
2022/03/30 07:14:39;;;;;;;24.67;18.08;;;;;;;-148.33;100.00;56587.81;5048072;28;20029;-56
2022/03/30 07:17:04;;;;;;;27.83;18.35;;;;;;;-148.33;100.00;56587.81;5048293;28;20025;-55
2022/03/30 07:19:30;;;;;;;25.35;19.42;;;;;;;-148.33;100.00;56587.81;5048545;28;20017;-57
2022/03/30 07:21:55;;;;;;;29.75;19.60;;;;;;;-148.33;100.00;56587.81;5047731;28;20036;-55
2022/03/30 07:24:20;;;;;;;25.88;18.33;;;;;;;-148.33;100.00;56587.81;5047321;28;20048;-57
2022/03/30 07:26:46;;;;;;;27.23;18.60;;;;;;;-148.33;100.00;56587.81;5048348;28;20036;-58
2022/03/30 07:29:11;;;;;;;25.98;19.33;;;;;;;-148.33;100.00;56587.81;5048551;28;20509;-56
2022/03/30 07:31:37;;;;;;;27.15;17.55;;;;;;;-148.33;100.00;56587.81;5048151;28;20078;-57
2022/03/30 07:34:03;;;;;;;22.75;16.98;;;;;;;-148.33;100.00;56587.81;5046894;28;20029;-56
2022/03/30 07:36:29;;;;;;;25.58;19.10;;;;;;;-148.33;100.00;56587.81;5029765;28;20108;-58
2022/03/30 07:38:54;;;;;;;27.08;18.02;;;;;;;-148.33;100.00;56587.81;5047217;28;20249;-56
2022/03/30 07:41:19;;;;;;;25.05;17.88;;;;;;;-148.33;100.00;56587.81;5048341;28;20412;-58
2022/03/30 07:43:45;;;;;;;23.67;17.35;;;;;;;-148.33;100.00;56587.81;5048248;28;20028;-56
2022/03/30 07:46:12;;;;;;;24.92;18.48;;;;;;;-148.33;100.00;56587.81;5048448;28;20067;-57
2022/03/30 07:48:38;;;;;;;25.85;18.77;;;;;;;-148.33;100.00;56587.81;5048570;28;20496;-55
2022/03/30 07:51:03;;;;;;;27.20;18.23;;;;;;;-148.33;100.00;56587.81;5048472;28;20071;-56
2022/03/30 07:53:29;;;;;;;28.83;18.05;;;;;;;-148.33;100.00;56587.81;5049047;28;20025;-57
2022/03/30 07:55:55;;;;;;;24.92;18.23;;;;;;;-148.33;100.00;56587.81;5048522;28;20488;-57
2022/03/30 07:58:21;;;;;;;24.33;19.00;;;;;;;-148.33;100.00;56587.81;5047596;28;20025;-58
2022/03/30 08:00:47;;;;;;;25.40;18.08;;;;;;;-148.33;100.00;56587.81;5048363;28;20041;-57
2022/03/30 08:03:12;;;;;;;23.02;17.50;;;;;;;-148.33;100.00;56587.81;5048712;28;20028;-58
2022/03/30 08:05:37;;;;;;;26.00;17.92;;;;;;;-148.33;100.00;56587.81;5030867;28;20035;-59
2022/03/30 08:08:06;;;;;;;23.52;16.85;;;;;;;-148.33;100.00;56587.81;5047288;28;20111;-58
2022/03/30 08:10:33;;;;;;;23.52;16.55;;;;;;;-148.33;100.00;56587.81;5049474;28;20044;-55
2022/03/30 08:12:58;;;;;;;25.33;16.48;;;;;;;-148.33;100.00;56587.81;5074342;28;20026;-59
2022/03/30 08:15:25;;;;;;;25.65;17.02;;;;;;;-148.33;100.00;56587.81;5069552;28;20383;-54
2022/03/30 08:17:51;;;;;;;22.17;16.63;;;;;;;-148.33;100.00;56587.81;5087917;28;20016;-58
2022/03/30 08:23:02;;;;;;;23.02;15.98;;;;;;;-148.33;100.00;56587.81;5088866;28;20078;-58
2022/03/30 08:25:27;;;;;;;19.55;14.95;;;;;;;-148.33;100.00;56587.81;5083874;28;20471;-58
2022/03/30 08:27:52;;;;;;;24.20;16.02;;;;;;;-148.33;100.00;56587.81;5087122;28;20024;-58
2022/03/30 08:30:18;;;;;;;22.85;15.25;;;;;;;-148.33;100.00;56587.81;5086354;28;20027;-55
2022/03/30 08:32:43;;;;;;;21.83;15.93;;;;;;;-148.33;100.00;56587.81;5084089;28;20071;-55
2022/03/30 08:35:10;;;;;;;21.35;14.50;;;;;;;-148.33;100.00;56587.81;5087752;28;20028;-57
2022/03/30 08:37:36;;;;;;;18.38;14.85;;;;;;;-148.33;100.00;56587.81;5087795;28;20066;-58
2022/03/30 08:40:01;;;;;;;25.23;14.05;;;;;;;-148.33;100.00;56587.81;5087467;28;20056;-57
2022/03/30 08:42:27;;;;;;;19.95;14.15;;;;;;;-148.33;100.00;56587.81;5082285;28;20103;-56
2022/03/30 08:44:53;;;;;;;24.42;15.68;;;;;;;-148.33;100.00;56587.81;5058029;28;20094;-58
2022/03/30 08:47:19;;;;;;;20.63;15.27;;;;;;;-148.33;100.00;56587.81;5065992;28;20024;-58
2022/03/30 08:49:47;;;;;;;23.00;15.13;;;;;;;-148.33;100.00;56587.81;5067846;28;20075;-56
2022/03/30 08:52:13;;;;;;;17.98;14.05;;;;;;;-148.33;100.00;56587.81;5063439;28;20534;-59
2022/03/30 08:54:43;;;;;;;26.33;15.65;;;;;;;-148.33;100.00;56587.81;5077335;28;20060;-57
2022/03/30 08:57:10;;;;;;;23.83;14.23;;;;;;;-148.33;100.00;56587.81;5071512;28;20025;-58
2022/03/30 08:59:35;;;;;;;20.95;14.75;;;;;;;-148.33;100.00;56587.81;5071712;28;20424;-58
2022/03/30 09:02:01;;;;;;;24.73;15.50;;;;;;;-148.33;100.00;56587.81;5071463;28;20497;-57
2022/03/30 09:04:26;;;;;;;20.42;14.25;;;;;;;-148.33;100.00;56587.81;5071360;28;20427;-55
2022/03/30 09:06:56;;;;;;;22.88;15.00;;;;;;;-148.33;100.00;56587.81;5071723;28;20024;-57
2022/03/30 09:09:34;;;;;;;21.27;14.60;;;;;;;-148.33;100.00;56587.81;5067385;28;20128;-58
2022/03/30 09:12:06;;;;;;;20.23;14.45;;;;;;;-148.33;100.00;56587.81;5050722;28;20074;-56
2022/03/30 09:14:34;;;;;;;18.50;13.85;;;;;;;-148.33;100.00;56587.81;5051774;28;20037;-57
2022/03/30 09:17:04;;;;;;;17.92;14.77;;;;;;;-148.33;100.00;56587.81;5033108;28;20039;-58
2022/03/30 09:19:36;;;;;;;18.57;13.83;;;;;;;-148.33;100.00;56587.81;5052013;28;20427;-56
2022/03/30 09:22:02;;;;;;;16.92;13.65;;;;;;;-148.33;100.00;56587.81;5051212;28;20402;-57
2022/03/30 09:24:32;;;;;;;19.52;14.57;;;;;;;-148.33;100.00;56587.81;5050813;28;20029;-58
2022/03/30 09:26:59;;;;;;;19.98;15.23;;;;;;;-148.33;100.00;56587.81;5051503;28;20028;-58
2022/03/30 09:29:27;;;;;;;22.88;13.98;;;;;;;-148.33;100.00;56587.81;5064904;28;20101;-58
2022/03/30 09:31:53;;;;;;;19.30;14.25;;;;;;;-148.33;100.00;56587.81;5070760;28;20028;-58
2022/03/30 09:34:20;;;;;;;19.75;14.13;;;;;;;-148.33;100.00;56587.81;5070373;28;20033;-58
2022/03/30 09:36:49;;;;;;;17.15;13.25;;;;;;;-148.33;100.00;56587.81;5050149;28;20033;-58
2022/03/30 09:39:38;;;;;;;19.80;14.73;;;;;;;-148.33;100.00;56587.81;5063137;28;20370;-57
2022/03/30 09:42:05;;;;;;;19.80;15.02;;;;;;;-148.33;100.00;56587.81;5070166;28;20028;-58
2022/03/30 09:44:45;;;;;;;21.73;15.80;;;;;;;-148.33;100.00;56587.81;5051421;28;20458;-59
2022/03/30 09:47:10;;;;;;;20.35;15.15;;;;;;;-148.33;100.00;56587.81;5050756;28;20366;-58
2022/03/30 09:49:42;;;;;;;19.45;14.02;;;;;;;-148.33;100.00;56587.81;5050289;28;20122;-56
2022/03/30 09:52:16;;;;;;;21.17;15.07;;;;;;;-148.33;100.00;56587.81;5050802;28;20480;-56
2022/03/30 09:54:42;;;;;;;20.42;14.95;;;;;;;-148.33;100.00;56587.81;5050561;28;20028;-55
2022/03/30 09:57:13;;;;;;;21.55;15.20;;;;;;;-148.33;100.00;56587.81;5050503;28;20068;-58
2022/03/30 09:59:59;;;;;;;19.85;14.75;;;;;;;-148.33;100.00;56587.81;5068552;28;20051;-56
2022/03/30 10:02:36;;;;;;;20.92;15.13;;;;;;;-148.33;100.00;56587.81;5066482;28;20052;-57
2022/03/30 10:05:02;;;;;;;22.55;14.80;;;;;;;-148.33;100.00;56587.81;5068402;28;20056;-57
2022/03/30 10:07:29;;;;;;;18.67;14.43;;;;;;;-148.33;100.00;56587.81;5065117;28;20032;-57
2022/03/30 10:09:56;;;;;;;20.30;15.90;;;;;;;-148.33;100.00;56587.81;5049711;28;20045;-57
2022/03/30 10:12:22;;;;;;;18.35;15.10;;;;;;;-148.33;100.00;56587.81;5057648;28;20078;-57
2022/03/30 10:14:48;;;;;;;15.02;13.10;;;;;;;-148.33;100.00;56587.81;5059624;28;20028;-56
2022/03/30 10:17:15;;;;;;;24.88;15.18;;;;;;;-148.33;100.00;56587.81;5069664;28;20423;-57
2022/03/30 10:19:44;;;;;;;18.80;15.15;;;;;;;-148.33;100.00;56587.81;5068699;28;20025;-57
2022/03/30 10:22:30;;;;;;;26.50;15.30;;;;;;;-148.33;100.00;56587.81;5077838;28;20024;-57
2022/03/30 10:25:06;;;;;;;18.33;14.80;;;;;;;-148.33;100.00;56587.81;5088851;28;20085;-57
2022/03/30 10:27:50;;;;;;;20.65;14.55;;;;;;;-148.33;100.00;56587.81;5090156;28;20106;-57
2022/03/30 10:30:29;;;;;;;16.17;14.43;;;;;;;-148.33;100.00;56587.81;5090156;28;20028;-57
2022/03/30 10:33:00;;;;;;;21.35;14.48;;;;;;;-148.33;100.00;56587.81;5082589;28;20051;-57
2022/03/30 10:35:48;;;;;;;20.08;15.02;;;;;;;-148.33;100.00;56587.81;5069913;28;20556;-57
2022/03/30 10:38:15;;;;;;;18.88;13.25;;;;;;;-148.33;100.00;56587.81;5065681;28;20032;-57
2022/03/30 10:40:42;;;;;;;18.15;15.20;;;;;;;-148.33;100.00;56587.81;5069582;28;20017;-56
2022/03/30 10:43:11;;;;;;;16.05;13.13;;;;;;;-148.33;100.00;56587.81;5068434;28;20142;-56
2022/03/30 10:45:46;;;;;;;17.30;14.35;;;;;;;-148.33;100.00;56587.81;5068168;28;20547;-58
2022/03/30 10:48:24;;;;;;;17.88;14.85;;;;;;;-148.33;100.00;56587.81;5068395;28;20477;-57
2022/03/30 10:50:51;;;;;;;19.17;15.07;;;;;;;-148.33;100.00;56587.81;5067646;28;20028;-57
2022/03/30 10:53:31;;;;;;;21.17;14.73;;;;;;;-148.33;100.00;56587.81;5068218;28;20380;-58
2022/03/30 10:56:08;;;;;;;18.23;14.55;;;;;;;-148.33;100.00;56587.81;5068315;28;20029;-58
2022/03/30 10:58:49;;;;;;;19.90;14.95;;;;;;;-148.33;100.00;56587.81;5067238;28;20135;-58
2022/03/30 11:01:19;;;;;;;16.23;14.43;;;;;;;-148.33;100.00;56587.81;5067972;28;20131;-58
2022/03/30 11:04:10;;;;;;;17.50;14.90;;;;;;;-148.33;100.00;56587.81;5069563;28;20048;-58